createdAt,value
2022-12-22T00:02:20.418Z,7.50
2022-12-22T00:05:08.043Z,7.40
2022-12-22T00:07:53.659Z,7.87
2022-12-22T00:10:39.387Z,7.43
2022-12-22T00:13:27.977Z,8.20
2022-12-22T00:16:13.482Z,7.33
2022-12-22T00:18:58.879Z,7.87
2022-12-22T00:21:47.985Z,8.40
2022-12-22T00:24:33.488Z,8.50
2022-12-22T00:27:18.976Z,8.03
2022-12-22T00:30:04.626Z,8.07
2022-12-22T00:32:55.574Z,8.30
2022-12-22T00:35:43.229Z,8.90
2022-12-22T00:38:39.969Z,9.03
2022-12-22T00:41:25.711Z,8.50
2022-12-22T00:44:11.025Z,8.63
2022-12-22T00:46:59.576Z,9.43
2022-12-22T00:49:46.631Z,8.73
2022-12-22T00:52:33.117Z,9.27
2022-12-22T00:55:18.740Z,9.00
2022-12-22T00:58:04.591Z,9.70
2022-12-22T01:00:50.342Z,9.57
2022-12-22T01:03:35.953Z,9.67
2022-12-22T01:06:21.684Z,9.17
2022-12-22T01:09:07.435Z,9.43
2022-12-22T01:11:54.270Z,10.37
2022-12-22T01:14:40.131Z,9.93
2022-12-22T01:17:25.820Z,10.67
2022-12-22T01:20:11.273Z,9.93
2022-12-22T01:22:56.538Z,9.27
2022-12-22T01:25:42.232Z,10.63
2022-12-22T01:28:35.372Z,10.10
2022-12-22T01:31:48.186Z,10.27
2022-12-22T01:34:33.787Z,10.40
2022-12-22T01:37:19.214Z,10.67
2022-12-22T01:40:04.705Z,10.40
2022-12-22T01:42:54.194Z,10.80
2022-12-22T01:45:45.498Z,10.83
2022-12-22T01:48:36.224Z,11.60
2022-12-22T01:51:28.774Z,10.97
2022-12-22T01:54:16.837Z,10.27
2022-12-22T01:57:04.181Z,11.23
2022-12-22T01:59:49.830Z,11.43
2022-12-22T02:02:37.101Z,11.00
2022-12-22T02:05:24.919Z,12.03
2022-12-22T02:08:16.125Z,11.50
2022-12-22T02:11:04.497Z,11.77
2022-12-22T02:14:18.634Z,11.20
2022-12-22T02:17:26.097Z,11.17
2022-12-22T02:20:41.284Z,11.63
2022-12-22T02:23:56.444Z,11.90
2022-12-22T02:26:54.828Z,11.00
2022-12-22T02:29:46.748Z,11.13
2022-12-22T02:32:32.518Z,11.20
2022-12-22T02:35:17.650Z,11.23
2022-12-22T02:38:17.419Z,12.17
2022-12-22T02:41:36.997Z,11.93
2022-12-22T02:44:46.135Z,10.70
2022-12-22T02:47:50.263Z,11.63
2022-12-22T02:50:48.889Z,12.43
2022-12-22T02:53:36.315Z,12.00
2022-12-22T02:56:25.470Z,12.23
2022-12-22T02:59:11.418Z,11.10
2022-12-22T03:01:58.124Z,12.23
2022-12-22T03:04:43.528Z,12.53
2022-12-22T03:07:28.959Z,12.07
2022-12-22T03:10:14.093Z,11.73
2022-12-22T03:12:59.800Z,10.83
2022-12-22T03:15:45.410Z,11.77
2022-12-22T03:18:31.541Z,11.77
2022-12-22T03:21:17.599Z,11.90
2022-12-22T03:24:02.864Z,11.20
2022-12-22T03:26:30.594Z,11.17
2022-12-22T03:28:57.489Z,11.60
2022-12-22T03:31:24.399Z,12.17
2022-12-22T03:33:51.180Z,11.80
2022-12-22T03:36:17.998Z,11.43
2022-12-22T03:38:44.723Z,12.20
2022-12-22T03:41:31.479Z,12.67
2022-12-22T03:44:16.757Z,10.50
2022-12-22T03:46:43.450Z,11.70
2022-12-22T03:49:10.216Z,12.17
2022-12-22T03:51:54.912Z,10.23
2022-12-22T03:54:24.198Z,12.67
2022-12-22T03:56:51.689Z,12.47
2022-12-22T03:59:19.301Z,11.90
2022-12-22T04:01:48.705Z,12.13
2022-12-22T04:04:17.569Z,12.63
2022-12-22T04:06:45.101Z,12.77
2022-12-22T04:09:12.782Z,12.57
2022-12-22T04:11:58.283Z,12.13
2022-12-22T04:14:29.820Z,12.10
2022-12-22T04:17:01.051Z,11.47
2022-12-22T04:19:27.794Z,10.57
2022-12-22T04:21:54.791Z,14.37
2022-12-22T04:24:22.373Z,11.53
2022-12-22T04:26:50.081Z,10.33
2022-12-22T04:29:17.137Z,10.67
2022-12-22T04:31:44.288Z,11.57
2022-12-22T04:34:11.203Z,10.57
2022-12-22T04:36:38.082Z,12.00
2022-12-22T04:39:04.885Z,11.73
2022-12-22T04:41:31.632Z,11.10
2022-12-22T04:43:58.326Z,11.40
2022-12-22T04:46:25.299Z,11.20
2022-12-22T04:48:59.282Z,11.50
2022-12-22T04:51:27.413Z,9.63
2022-12-22T04:53:54.149Z,10.63
2022-12-22T04:56:21.009Z,10.80
2022-12-22T04:58:47.748Z,11.87
2022-12-22T05:01:17.216Z,11.00
2022-12-22T05:03:44.308Z,11.43
2022-12-22T05:06:11.493Z,11.30
2022-12-22T05:08:38.645Z,10.67
2022-12-22T05:11:05.860Z,10.73
2022-12-22T05:13:32.955Z,10.33
2022-12-22T05:16:08.516Z,10.53
2022-12-22T05:18:36.307Z,10.37
2022-12-22T05:21:06.266Z,10.00
2022-12-22T05:23:33.344Z,9.43
2022-12-22T05:26:00.113Z,10.20
2022-12-22T05:28:27.100Z,10.67
2022-12-22T05:30:54.240Z,10.30
2022-12-22T05:33:21.564Z,10.73
2022-12-22T05:35:48.364Z,11.20
2022-12-22T05:38:15.151Z,10.10
2022-12-22T05:40:41.955Z,12.00
2022-12-22T05:43:10.171Z,11.43
2022-12-22T05:45:36.894Z,9.77
2022-12-22T05:48:03.950Z,10.90
2022-12-22T05:50:31.659Z,10.73
2022-12-22T05:52:59.005Z,10.87
2022-12-22T05:55:25.909Z,10.67
2022-12-22T05:57:52.691Z,11.43
2022-12-22T06:00:20.031Z,10.53
2022-12-22T06:02:47.100Z,11.20
2022-12-22T06:05:15.150Z,10.80
2022-12-22T06:07:42.030Z,11.70
2022-12-22T06:10:12.399Z,11.87
2022-12-22T06:12:40.337Z,11.80
2022-12-22T06:15:08.930Z,12.17
2022-12-22T06:17:39.246Z,12.63
2022-12-22T06:20:11.547Z,13.70
2022-12-22T06:22:38.250Z,13.73
2022-12-22T06:25:05.534Z,13.07
2022-12-22T06:27:32.295Z,13.77
2022-12-22T06:29:59.260Z,13.33
2022-12-22T06:32:26.016Z,14.50
2022-12-22T06:34:52.779Z,14.77
2022-12-22T06:37:19.506Z,14.67
2022-12-22T06:39:46.298Z,13.83
2022-12-22T06:42:31.811Z,15.90
2022-12-22T06:44:58.602Z,14.77
2022-12-22T06:47:25.466Z,16.67
2022-12-22T06:49:52.376Z,15.63
2022-12-22T06:52:19.328Z,15.53
2022-12-22T06:54:46.166Z,16.37
2022-12-22T06:57:12.888Z,16.97
2022-12-22T06:59:39.669Z,16.33
2022-12-22T07:02:07.064Z,16.03
2022-12-22T07:04:33.975Z,17.70
2022-12-22T07:07:01.830Z,16.47
2022-12-22T07:09:29.629Z,16.93
2022-12-22T07:11:56.501Z,16.27
2022-12-22T07:14:23.300Z,19.03
2022-12-22T07:16:50.072Z,15.63
2022-12-22T07:19:16.842Z,16.20
2022-12-22T07:21:43.695Z,15.83
2022-12-22T07:24:10.539Z,15.33
2022-12-22T07:26:37.307Z,17.00
2022-12-22T07:29:04.253Z,14.90
2022-12-22T07:31:31.254Z,15.20
2022-12-22T07:33:58.078Z,17.20
2022-12-22T07:36:24.945Z,15.67
2022-12-22T07:38:52.142Z,15.50
2022-12-22T07:41:39.285Z,16.07
2022-12-22T07:44:06.215Z,15.13
2022-12-22T07:46:36.378Z,14.90
2022-12-22T07:49:23.173Z,15.83
2022-12-22T07:51:50.091Z,16.33
2022-12-22T07:54:17.399Z,16.87
2022-12-22T07:56:46.135Z,17.00
2022-12-22T07:59:13.607Z,15.13
2022-12-22T08:01:41.620Z,14.97
2022-12-22T08:04:10.181Z,16.17
2022-12-22T08:06:37.119Z,14.20
2022-12-22T08:09:05.790Z,14.60
2022-12-22T08:11:33.308Z,14.73
2022-12-22T08:14:01.971Z,14.23
2022-12-22T08:16:29.257Z,14.90
2022-12-22T08:18:56.327Z,13.73
2022-12-22T08:21:23.727Z,15.43
2022-12-22T08:23:50.664Z,13.47
2022-12-22T08:26:38.372Z,13.17
2022-12-22T08:29:13.069Z,14.77
2022-12-22T08:31:41.669Z,14.57
2022-12-22T08:34:12.946Z,13.97
2022-12-22T08:36:44.469Z,13.70
2022-12-22T08:39:11.701Z,14.27
2022-12-22T08:41:50.848Z,13.37
2022-12-22T08:44:29.217Z,13.27
2022-12-22T08:46:57.660Z,13.13
2022-12-22T08:49:24.911Z,13.17
2022-12-22T08:51:52.743Z,14.60
2022-12-22T08:54:20.053Z,12.93
2022-12-22T08:56:47.198Z,13.27
2022-12-22T08:59:14.086Z,12.83
2022-12-22T09:01:44.659Z,12.73
2022-12-22T09:04:17.518Z,14.53
2022-12-22T09:06:45.009Z,13.53
2022-12-22T09:09:13.683Z,13.07
2022-12-22T09:11:41.110Z,13.13
2022-12-22T09:14:09.670Z,13.77
2022-12-22T09:16:36.481Z,12.90
2022-12-22T09:19:04.320Z,13.87
2022-12-22T09:21:31.222Z,14.13
2022-12-22T09:23:58.568Z,13.33
2022-12-22T09:26:27.628Z,13.10
2022-12-22T09:28:55.653Z,13.63
2022-12-22T09:31:23.932Z,13.60
2022-12-22T09:33:52.353Z,12.30
2022-12-22T09:36:25.194Z,12.50
2022-12-22T09:38:52.455Z,13.27
2022-12-22T09:41:40.405Z,13.30
2022-12-22T09:44:19.822Z,13.93
2022-12-22T09:46:46.746Z,12.03
2022-12-22T09:49:18.036Z,12.03
2022-12-22T09:51:49.231Z,13.00
2022-12-22T09:54:16.367Z,12.33
2022-12-22T09:56:43.436Z,12.27
2022-12-22T09:59:18.863Z,12.40
2022-12-22T10:01:48.451Z,11.73
2022-12-22T10:04:43.533Z,12.57
2022-12-22T10:07:32.348Z,11.37
2022-12-22T10:10:14.051Z,11.23
2022-12-22T10:12:40.887Z,11.33
2022-12-22T10:15:15.448Z,12.00
2022-12-22T10:17:45.302Z,11.53
2022-12-22T10:20:25.655Z,12.27
2022-12-22T10:23:20.572Z,10.87
2022-12-22T10:26:29.127Z,11.23
2022-12-22T10:29:07.434Z,10.37
2022-12-22T10:31:37.005Z,12.40
2022-12-22T10:34:17.854Z,11.00
2022-12-22T10:36:49.809Z,11.33
2022-12-22T10:39:23.313Z,11.07
2022-12-22T10:41:52.330Z,11.47
2022-12-22T10:44:22.424Z,10.47
2022-12-22T10:46:55.119Z,10.37
2022-12-22T10:52:12.156Z,10.63
2022-12-22T10:54:42.519Z,10.10
2022-12-22T10:57:15.486Z,9.13
2022-12-22T10:59:52.492Z,9.50
2022-12-22T11:02:24.790Z,9.67
2022-12-22T11:04:53.606Z,9.27
2022-12-22T11:07:20.722Z,10.50
2022-12-22T11:09:47.637Z,9.17
2022-12-22T11:12:33.167Z,10.00
2022-12-22T11:15:23.935Z,9.53
2022-12-22T11:18:14.692Z,8.80
2022-12-22T11:20:55.047Z,9.37
2022-12-22T11:23:33.779Z,8.60
2022-12-22T11:26:20.042Z,8.00
2022-12-22T11:28:58.718Z,8.83
2022-12-22T11:31:51.865Z,8.07
2022-12-22T11:34:42.884Z,7.53
2022-12-22T11:37:33.899Z,7.77
2022-12-22T11:40:37.390Z,8.00
2022-12-22T11:43:25.990Z,7.57
2022-12-22T11:46:27.478Z,8.17
2022-12-22T11:49:04.083Z,8.40
2022-12-22T11:51:57.108Z,9.23
2022-12-22T11:54:26.557Z,9.93
2022-12-22T11:57:10.966Z,10.10
2022-12-22T11:59:43.686Z,11.03
2022-12-22T12:02:16.557Z,11.90
2022-12-22T12:05:15.117Z,13.03
2022-12-22T12:07:44.954Z,14.10
2022-12-22T12:10:28.838Z,13.60
2022-12-22T12:13:16.800Z,13.00
2022-12-22T12:16:13.955Z,13.67
2022-12-22T12:19:07.568Z,13.87
2022-12-22T12:21:51.795Z,15.30
2022-12-22T12:24:36.953Z,14.57
2022-12-22T12:27:09.582Z,15.70
2022-12-22T12:30:37.564Z,15.67
2022-12-22T12:33:09.769Z,14.80
2022-12-22T12:36:05.353Z,15.80
2022-12-22T12:39:08.924Z,13.90
2022-12-22T12:41:44.932Z,13.90
2022-12-22T12:44:18.802Z,16.23
2022-12-22T12:46:51.529Z,14.00
2022-12-22T12:49:36.576Z,14.70
2022-12-22T12:52:11.001Z,16.27
2022-12-22T12:54:39.199Z,14.80
2022-12-22T12:57:24.085Z,15.60
2022-12-22T12:59:53.550Z,16.73
2022-12-22T13:02:39.143Z,16.20
2022-12-22T13:05:12.144Z,16.30
2022-12-22T13:08:09.676Z,17.53
2022-12-22T13:10:40.508Z,16.67
2022-12-22T13:13:22.939Z,17.47
2022-12-22T13:16:02.158Z,17.03
2022-12-22T13:18:49.497Z,18.77
2022-12-22T13:24:26.852Z,16.80
2022-12-22T13:26:55.946Z,16.23
2022-12-22T13:29:22.942Z,17.23
2022-12-22T13:32:02.352Z,16.37
2022-12-22T13:35:20.691Z,15.83
2022-12-22T13:37:41.967Z,15.83
2022-12-22T13:40:15.072Z,15.03
2022-12-22T13:42:43.567Z,13.20
2022-12-22T13:45:40.780Z,13.90
2022-12-22T13:48:44.135Z,14.30
2022-12-22T13:51:22.886Z,14.40
2022-12-22T13:54:11.719Z,15.00
2022-12-22T13:56:46.121Z,14.67
2022-12-22T13:59:29.256Z,14.13
2022-12-22T14:02:15.092Z,12.07
2022-12-22T14:04:47.853Z,11.20
2022-12-22T14:07:20.208Z,11.70
2022-12-22T14:09:55.058Z,11.80
2022-12-22T14:12:44.714Z,11.53
2022-12-22T14:15:19.848Z,10.30
2022-12-22T14:17:52.716Z,10.37
2022-12-22T14:20:25.244Z,10.67
2022-12-22T14:22:58.547Z,11.90
2022-12-22T14:25:33.601Z,10.33
2022-12-22T14:28:01.668Z,10.43
2022-12-22T14:30:37.952Z,9.77
2022-12-22T14:33:17.717Z,10.73
2022-12-22T14:35:44.702Z,9.83
2022-12-22T14:38:23.287Z,10.10
2022-12-22T14:40:56.492Z,10.20
2022-12-22T14:43:28.042Z,9.90
2022-12-22T14:46:04.592Z,9.83
2022-12-22T14:48:35.182Z,8.73
2022-12-22T14:51:03.285Z,9.57
2022-12-22T14:53:45.327Z,9.03
2022-12-22T14:56:13.590Z,9.00
2022-12-22T14:58:42.818Z,9.20
2022-12-22T15:01:21.242Z,8.87
2022-12-22T15:04:16.950Z,9.43
2022-12-22T15:06:46.011Z,8.10
2022-12-22T15:09:15.491Z,9.47
2022-12-22T15:11:46.484Z,7.87
2022-12-22T15:14:21.067Z,8.07
2022-12-22T15:16:48.269Z,7.53
2022-12-22T15:19:17.439Z,9.90
2022-12-22T15:21:44.267Z,9.33
2022-12-22T15:24:16.053Z,9.70
2022-12-22T15:26:43.702Z,9.23
2022-12-22T15:29:11.181Z,9.07
2022-12-22T15:31:39.456Z,8.23
2022-12-22T15:34:32.038Z,8.03
2022-12-22T15:36:59.091Z,8.43
2022-12-22T15:39:26.283Z,8.50
2022-12-22T15:41:54.599Z,8.57
2022-12-22T15:44:22.375Z,7.77
2022-12-22T15:46:56.323Z,7.43
2022-12-22T15:49:26.520Z,7.90
2022-12-22T15:51:56.332Z,8.00
2022-12-22T15:54:25.572Z,8.40
2022-12-22T15:56:54.053Z,8.83
2022-12-22T15:59:25.569Z,8.20
2022-12-22T16:01:58.474Z,9.07
2022-12-22T16:04:28.425Z,7.93
2022-12-22T16:06:56.976Z,8.83
2022-12-22T16:09:27.657Z,8.90
2022-12-22T16:11:54.893Z,9.07
2022-12-22T16:14:23.555Z,8.13
2022-12-22T16:16:51.045Z,9.13
2022-12-22T16:19:18.995Z,8.97
2022-12-22T16:21:48.353Z,8.27
2022-12-22T16:24:36.106Z,8.90
2022-12-22T16:27:03.469Z,10.00
2022-12-22T16:29:30.653Z,8.33
2022-12-22T16:32:22.248Z,9.13
2022-12-22T16:34:49.033Z,7.83
2022-12-22T16:37:15.804Z,8.23
2022-12-22T16:39:42.595Z,8.10
2022-12-22T16:45:01.948Z,8.27
2022-12-22T16:47:32.973Z,8.43
2022-12-22T16:50:00.743Z,7.43
2022-12-22T16:52:40.208Z,8.27
2022-12-22T16:55:15.547Z,7.73
2022-12-22T16:57:42.616Z,7.10
2022-12-22T17:00:17.879Z,7.73
2022-12-22T17:02:48.508Z,7.50
2022-12-22T17:05:26.296Z,7.63
2022-12-22T17:07:54.329Z,7.60
2022-12-22T17:10:22.672Z,7.30
2022-12-22T17:12:51.453Z,7.13
2022-12-22T17:15:21.384Z,7.40
2022-12-22T17:17:49.165Z,7.37
2022-12-22T17:20:18.368Z,7.30
2022-12-22T17:22:48.833Z,7.17
2022-12-22T17:25:20.444Z,7.90
2022-12-22T17:27:47.748Z,7.17
2022-12-22T17:30:20.666Z,7.97
2022-12-22T17:32:47.952Z,7.50
2022-12-22T17:35:16.320Z,7.00
2022-12-22T17:37:44.963Z,7.73
2022-12-22T17:40:34.297Z,7.97
2022-12-22T17:43:01.115Z,7.70
2022-12-22T17:45:28.017Z,7.40
2022-12-22T17:47:54.736Z,7.13
2022-12-22T17:50:23.191Z,8.80
2022-12-22T17:52:50.373Z,7.37
2022-12-22T17:56:01.231Z,7.93
2022-12-22T17:58:14.868Z,8.13
2022-12-22T18:00:42.330Z,8.17
2022-12-22T18:03:13.974Z,7.87
2022-12-22T18:05:46.946Z,8.23
2022-12-22T18:08:17.264Z,7.90
2022-12-22T18:10:44.568Z,7.47
2022-12-22T18:13:25.092Z,7.50
2022-12-22T18:15:53.140Z,7.00
2022-12-22T18:18:20.926Z,7.13
2022-12-22T18:21:06.559Z,7.10
2022-12-22T18:23:35.932Z,7.70
2022-12-22T18:26:05.761Z,7.20
2022-12-22T18:28:32.557Z,7.33
2022-12-22T18:30:59.466Z,7.53
2022-12-22T18:33:26.355Z,8.07
2022-12-22T18:35:53.197Z,7.97
2022-12-22T18:38:29.542Z,7.23
2022-12-22T18:40:56.778Z,8.13
2022-12-22T18:43:23.863Z,8.03
2022-12-22T18:45:50.633Z,7.50
2022-12-22T18:48:17.355Z,8.43
2022-12-22T18:50:44.205Z,7.73
2022-12-22T18:53:29.345Z,7.77
2022-12-22T18:55:56.838Z,9.27
2022-12-22T18:58:24.190Z,7.27
2022-12-22T19:00:52.361Z,8.40
2022-12-22T19:03:22.238Z,8.70
2022-12-22T19:05:49.684Z,8.43
2022-12-22T19:08:19.124Z,8.70
2022-12-22T19:10:55.173Z,8.03
2022-12-22T19:13:40.557Z,7.53
2022-12-22T19:16:07.934Z,7.60
2022-12-22T19:18:34.863Z,8.00
2022-12-22T19:21:01.917Z,6.67
2022-12-22T19:23:28.697Z,7.20
2022-12-22T19:26:02.198Z,7.67
2022-12-22T19:28:40.105Z,7.23
2022-12-22T19:31:08.454Z,7.50
2022-12-22T19:33:43.177Z,6.77
2022-12-22T19:36:17.519Z,6.60
2022-12-22T19:38:49.891Z,6.93
2022-12-22T19:41:26.780Z,7.03
2022-12-22T19:43:53.567Z,7.30
2022-12-22T19:46:20.402Z,6.37
2022-12-22T19:48:47.401Z,6.60
2022-12-22T19:51:17.588Z,7.43
2022-12-22T19:53:44.724Z,7.37
2022-12-22T19:56:25.765Z,7.50
2022-12-22T19:58:54.705Z,8.23
2022-12-22T20:01:21.604Z,7.57
2022-12-22T20:03:48.595Z,7.83
2022-12-22T20:06:15.365Z,7.33
2022-12-22T20:08:42.126Z,7.73
2022-12-22T20:11:17.813Z,7.93
2022-12-22T20:13:45.922Z,8.33
2022-12-22T20:16:16.867Z,7.93
2022-12-22T20:18:46.361Z,7.87
2022-12-22T20:21:33.349Z,8.43
2022-12-22T20:24:01.506Z,7.57
2022-12-22T20:26:28.296Z,7.60
2022-12-22T20:28:55.104Z,7.40
2022-12-22T20:31:24.038Z,7.77
2022-12-22T20:33:51.985Z,6.90
2022-12-22T20:36:28.871Z,8.00
2022-12-22T20:38:57.321Z,7.67
2022-12-22T20:41:25.110Z,8.40
2022-12-22T20:43:53.595Z,7.40
2022-12-22T20:46:24.682Z,7.57
2022-12-22T20:49:09.585Z,8.43
2022-12-22T20:51:36.326Z,7.30
2022-12-22T20:54:03.057Z,7.73
2022-12-22T20:56:33.257Z,8.30
2022-12-22T20:59:06.748Z,7.70
2022-12-22T21:01:33.708Z,7.10
2022-12-22T21:04:00.508Z,6.23
2022-12-22T21:06:30.466Z,6.83
2022-12-22T21:08:59.385Z,7.00
2022-12-22T21:11:27.237Z,7.33
2022-12-22T21:13:54.881Z,6.70
2022-12-22T21:16:23.972Z,6.10
2022-12-22T21:18:52.000Z,7.33
2022-12-22T21:21:19.459Z,6.87
2022-12-22T21:23:46.567Z,6.43
2022-12-22T21:26:38.632Z,6.77
2022-12-22T21:29:13.121Z,6.00
2022-12-22T21:31:39.857Z,6.97
2022-12-22T21:34:06.573Z,6.93
2022-12-22T21:36:34.688Z,6.23
2022-12-22T21:39:05.661Z,6.87
2022-12-22T21:41:51.142Z,7.43
2022-12-22T21:44:17.879Z,6.87
2022-12-22T21:46:46.237Z,6.47
2022-12-22T21:49:25.707Z,6.73
2022-12-22T21:51:54.146Z,6.83
2022-12-22T21:54:23.119Z,6.70
2022-12-22T21:56:53.449Z,6.83
2022-12-22T21:59:21.007Z,7.87
2022-12-22T22:01:48.326Z,6.17
2022-12-22T22:04:15.350Z,6.77
2022-12-22T22:06:42.093Z,6.97
2022-12-22T22:09:08.997Z,6.37
2022-12-22T22:11:58.867Z,7.03
2022-12-22T22:14:26.683Z,6.97
2022-12-22T22:16:54.281Z,6.70
2022-12-22T22:19:21.160Z,6.20
2022-12-22T22:21:47.914Z,7.10
2022-12-22T22:24:14.920Z,7.60
2022-12-22T22:26:44.078Z,7.63
2022-12-22T22:29:10.777Z,7.73
2022-12-22T22:31:37.510Z,7.10
2022-12-22T22:34:04.293Z,7.00
2022-12-22T22:36:30.980Z,8.03
2022-12-22T22:38:57.905Z,6.97
2022-12-22T22:41:25.392Z,8.00
2022-12-22T22:43:54.556Z,8.10
2022-12-22T22:46:21.359Z,7.90
2022-12-22T22:48:48.629Z,8.00
2022-12-22T22:51:15.460Z,8.90
2022-12-22T22:53:42.283Z,8.13
2022-12-22T22:56:09.208Z,8.57
2022-12-22T22:58:35.931Z,9.23
2022-12-22T23:01:07.649Z,8.43
2022-12-22T23:03:35.317Z,8.43
2022-12-22T23:06:08.102Z,9.43
2022-12-22T23:08:35.607Z,8.53
2022-12-22T23:11:03.748Z,9.50
2022-12-22T23:13:31.285Z,9.43
2022-12-22T23:16:00.574Z,9.77
2022-12-22T23:18:28.182Z,9.70
2022-12-22T23:20:58.166Z,10.00
2022-12-22T23:23:25.040Z,10.60
2022-12-22T23:25:51.821Z,10.87
2022-12-22T23:28:18.956Z,10.63
2022-12-22T23:30:49.218Z,11.20
2022-12-22T23:33:16.228Z,9.97
2022-12-22T23:35:45.587Z,9.97
2022-12-22T23:38:12.784Z,9.73
2022-12-22T23:40:56.238Z,8.53
2022-12-22T23:43:23.001Z,9.60
2022-12-22T23:45:49.759Z,8.40
2022-12-22T23:48:16.506Z,8.77
2022-12-22T23:50:46.694Z,8.47
2022-12-22T23:53:14.177Z,8.40
2022-12-22T23:55:45.181Z,8.63
2022-12-22T23:58:12.398Z,7.37
